Nakhon Si Thammarat, Thailand
Current Conditions -  °F | °C
As of 9:00 PM on Friday 24 Oct 2014 (Local Time) from VTSF Reporting Station
Broken Clouds Broken Clouds  
Wind Chill: 77°   Ceiling: 30000
Heat Index: 78°   Visibility: 6mi
Dew Point: 77°   Wind: 2mph
Humidity: 100%   Direction: 230°SW
Pressure: 29.85"   Gusts: NA
Location:  8.4°N, 99.97°E
Report Text: VTSF 241400Z 23002KT 9999 FEW016CB SCT018 BKN30025/25 Q1011 A2988 INFO O / RWY 19
Loading
Personal Weather Stations






























Interactive Weather Map
Tropical Storm Tracking
New forecast layout! Learn more

10-Day Weather Forecast

Advertisements
Track Severe Weather on mobile